Flight Track Log - Related Links

Times and Time Zones

All times are in EDT time to prevent confusion due to time zone crossing. See the CTL13 flight status page for this flight to view local times or setup timezone preferences in your user account.

Time Position Orientation Groundspeed Altitude Reporting Facility
EDT Latitude Longitude Course Direction KTS MPH feet Rate Location/Type
Fri 08:48:39 PM 39.9167 -86.2833 360° North 167 192 2,400  Level Indianapolis TRACON
Fri 08:49:39 PM 39.9500 -86.3333 311° West 168 193 2,900 550 Climbing Indianapolis TRACON
Fri 08:50:39 PM 39.9833 -86.3667 323° Northwest 166 191 3,500 527 Climbing Indianapolis TRACON
Fri 08:51:10 PM 39.9950 -86.3889 304° West 166 191 3,700 387 Climbing Indianapolis Center
Fri 08:52:12 PM 40.0353 -86.4372 317° Northwest 167 192 4,100 390 Climbing Indianapolis Center
Fri 08:53:13 PM 40.0700 -86.4783 318° Northwest 168 193 4,500 393 Climbing Indianapolis Center
Fri 08:54:14 PM 40.1047 -86.5194 318° Northwest 168 193 4,900 293 Climbing Indianapolis Center
Fri 08:55:16 PM 40.1392 -86.5611 317° Northwest 167 192 5,100 294 Climbing Indianapolis Center
Fri 08:55:56 PM 40.1617 -86.5892 316° Northwest 167 192 5,400 353 Climbing Chicago Center
Fri 08:56:58 PM 40.1964 -86.6286 319° Northwest 165 190 5,700 290 Climbing Chicago Center
Fri 08:58:00 PM 40.2319 -86.6703 318° Northwest 169 194 6,000 145 Climbing Chicago Center
Fri 08:59:02 PM 40.2686 -86.7142 318° Northwest 175 201 6,000  Level Chicago Center
Fri 09:00:04 PM 40.3061 -86.7633 315° West 185 213 6,000  Level Chicago Center
Fri 09:01:06 PM 40.3472 -86.8169 315° West 179 206 6,000  Level Chicago Center
Fri 09:02:15 PM 40.3844 -86.8633 316° Northwest 174 200 6,000  Level Chicago Center
Fri 09:03:11 PM 40.4192 -86.9017 320° Northwest 175 201 6,000  Level Chicago Center
Fri 09:04:13 PM 40.4550 -86.9456 317° Northwest 174 200 6,000  Level Chicago Center
Fri 09:05:15 PM 40.4911 -86.9894 317° Northwest 175 201 6,000  Level Chicago Center
Fri 09:06:17 PM 40.5289 -87.0319 319° Northwest 177 204 6,000 48 Level Chicago Center
Fri 09:07:19 PM 40.5706 -87.0833 317° Northwest 177 204 6,100  Climbing Chicago Center
Fri 09:08:21 PM 40.6181 -87.1072 339° North 183 211 6,000 -48 Descending Chicago Center
Fri 09:09:23 PM 40.6650 -87.1314 339° North 183 211 6,000  Level Chicago Center
Fri 09:10:25 PM 40.7136 -87.1536 341° North 185 213 6,000  Level Chicago Center
Fri 09:11:27 PM 40.7597 -87.1792 337° Northwest 182 209 6,000  Level Chicago Center
Fri 09:12:29 PM 40.8147 -87.2075 339° North 179 206 6,000 48 Level Chicago Center
Fri 09:13:31 PM 40.8608 -87.2331 337° Northwest 181 208 6,100 48 Climbing Chicago Center
Fri 09:14:33 PM 40.9050 -87.2583 337° Northwest 176 203 6,100  Level Chicago Center
Fri 09:15:35 PM 40.9506 -87.2836 337° Northwest 178 205 6,100 -48 Level Chicago Center
Fri 09:16:37 PM 40.9972 -87.3075 339° North 179 206 6,000 -48 Descending Chicago Center
Fri 09:17:39 PM 41.0531 -87.3361 339° North 181 208 6,000  Level Chicago Center
Fri 09:18:41 PM 41.0983 -87.3594 339° North 177 204 6,000  Level Chicago Center
Fri 09:19:43 PM 41.1433 -87.3836 338° Northwest 177 204 6,000 -532 Level Chicago Center
Fri 09:20:45 PM 41.1969 -87.4108 339° North 194 223 4,900 -968 Descending Chicago Center
Fri 09:21:47 PM 41.2500 -87.4411 337° Northwest 205 236 4,000 -435 Descending Chicago Center
Fri 09:22:49 PM 41.3031 -87.4456 356° North 198 228 4,000  Level Chicago Center
Fri 09:23:50 PM 41.3658 -87.4517 356° North 193 222 4,000  Level Chicago Center
Fri 09:24:52 PM 41.4147 -87.4717 343° North 196 226 4,000  Level Chicago Center
Fri 09:25:54 PM 41.4606 -87.4978 337° Northwest 185 213 4,000  Level Chicago Center
Fri 09:26:56 PM 41.5067 -87.5244 337° Northwest 183 211 4,000  Level Chicago Center
Fri 09:27:58 PM 41.5525 -87.5486 338° Northwest 181 208 4,000 -439 Level Chicago Center
Fri 09:28:59 PM 41.6125 -87.5822 337° Northwest 187 215 3,100 -488 Descending Chicago Center
Fri 09:30:01 PM 41.6644 -87.6050 342° North 194 223 3,000 -478 Descending Chicago Center
Fri 09:30:52 PM 41.7000 -87.6333 329° Northwest 188 216 2,200 -667 Descending Chicago TRACON
Fri 09:31:58 PM 41.7500 -87.6833 323° Northwest 177 204 1,700 -381 Descending Chicago TRACON
Fri 09:32:58 PM 41.7833 -87.7167 323° Northwest 144 166 1,400 -300 Descending Chicago TRACON

Login

Don't have an account? Register now (free) for customized features, flight alerts, and more!